»·PEaware :: N2997P KSMX-KMHV

N2997P :: KSMX-KMHV

FLIGHT INFORMATION

Flight Status: Arrived
Operator: Privately registered:
United States
More flights under this callsign
Pilot: John D. (31622)
Aircraft: CIRRUS VISIONJET
(SF50)
More flights by this aircraft type
Origin: KSMX Santa Maria Pub/Capt Hancock
United States
Destination: KMHV Mojave
United States
More flights between these airports :: More routes between these airports
Route: +
File this flight plan on PilotEdge
Remarks:
Altitude:
(Current/Filed)
0ft
Speed:
(Current/Filed)
0kts
Departed: 25-Oct-20 05:21 PM
Arrived: 25-Oct-20 06:03 PM
Distance/Time
Traveled:
114nm/0:41
Distance/Time
To Go:
Arrived

Flight Plot

Page will automatically refresh every two minutes.

Flight plan parsing failed; only flown route is shown


Map Options




Map Legend


Flown Route
Filed Route
Departure Airport
Arrival Airport
Navaid (VOR, NDB)
Fix

Horizontal Profiles

Position Reports

Time Latitude Longitude Heading Altitude Ground
Speed
25-Oct-20 17:13 34.895984 -120.445061 314 265ft 0kts
25-Oct-20 17:14 34.895984 -120.445061 314 265ft 0kts
25-Oct-20 17:15 34.895984 -120.445061 314 265ft 0kts
25-Oct-20 17:16 34.895973 -120.445277 253 265ft 4kts
25-Oct-20 17:17 34.893586 -120.445204 182 265ft 0kts
25-Oct-20 17:18 34.893586 -120.445204 182 265ft 0kts
25-Oct-20 17:19 34.893586 -120.445204 182 265ft 0kts
25-Oct-20 17:20 34.895381 -120.448999 316 265ft 83kts
25-Oct-20 17:21 34.919639 -120.482038 303 2904ft 150kts
25-Oct-20 17:22 34.952242 -120.506526 353 6335ft 149kts
25-Oct-20 17:23 34.973136 -120.466921 99 9265ft 167kts
25-Oct-20 17:24 34.968897 -120.409176 95 11892ft 174kts
25-Oct-20 17:25 34.966174 -120.347895 95 14254ft 186kts
25-Oct-20 17:26 34.967272 -120.282753 89 15521ft 213kts
25-Oct-20 17:27 34.971689 -120.206023 86 15509ft 238kts
25-Oct-20 17:28 34.978347 -120.123759 85 15499ft 248kts
25-Oct-20 17:29 34.986631 -120.039184 84 15489ft 252kts
25-Oct-20 17:30 34.996449 -119.954320 82 15483ft 253kts
25-Oct-20 17:31 35.007845 -119.869160 81 15483ft 254kts
25-Oct-20 17:32 35.020714 -119.784594 79 15484ft 254kts
25-Oct-20 17:33 35.035104 -119.700312 78 15495ft 253kts
25-Oct-20 17:34 35.051047 -119.616930 77 15515ft 253kts
25-Oct-20 17:35 35.054189 -119.531440 89 15512ft 252kts
25-Oct-20 17:36 35.056355 -119.445754 89 15512ft 252kts
25-Oct-20 17:37 35.058544 -119.359948 89 15512ft 252kts
25-Oct-20 17:38 35.060783 -119.274340 89 15509ft 252kts
25-Oct-20 17:39 35.063048 -119.188746 89 15510ft 252kts
25-Oct-20 17:40 35.065320 -119.103523 89 15510ft 252kts
25-Oct-20 17:41 35.067612 -119.018043 89 15511ft 252kts
25-Oct-20 17:42 35.069818 -118.932523 89 15522ft 253kts
25-Oct-20 17:43 35.071758 -118.846020 89 15533ft 256kts
25-Oct-20 17:44 35.073283 -118.759557 89 15541ft 258kts
25-Oct-20 17:45 35.074704 -118.672159 89 15544ft 260kts
25-Oct-20 17:46 35.076143 -118.583880 89 15547ft 261kts
25-Oct-20 17:47 35.077532 -118.501855 89 15533ft 214kts
25-Oct-20 17:48 35.078821 -118.433696 89 15180ft 198kts
25-Oct-20 17:49 35.080037 -118.366441 89 14574ft 198kts
25-Oct-20 17:50 35.082775 -118.299680 77 13406ft 206kts
25-Oct-20 17:51 35.099453 -118.235027 75 12184ft 200kts
25-Oct-20 17:52 35.093499 -118.170955 147 10539ft 206kts
25-Oct-20 17:53 35.046258 -118.189190 173 8739ft 182kts
25-Oct-20 17:54 35.059212 -118.166867 277 6832ft 166kts
25-Oct-20 17:55 35.048972 -118.136737 53 4247ft 207kts
25-Oct-20 17:56 35.065914 -118.133753 297 5240ft 115kts
25-Oct-20 17:57 35.074154 -118.185163 256 6576ft 154kts
25-Oct-20 17:58 35.064007 -118.161523 39 3865ft 206kts
25-Oct-20 17:59 35.064679 -118.112420 146 3481ft 153kts
25-Oct-20 18:00 35.033103 -118.099978 273 3777ft 77kts
25-Oct-20 18:01 35.038023 -118.122590 305 3111ft 78kts
25-Oct-20 18:02 35.048773 -118.136338 278 2698ft 19kts
25-Oct-20 18:03 35.048513 -118.136868 221 2699ft 0kts

Navigation Log

Ident Type
Flight plan parsing failed, navigation log unavailable